createdAt,value
2023-03-30T00:00:42.875Z,43.90
2023-03-30T00:01:45.336Z,43.90
2023-03-30T00:02:50.626Z,43.90
2023-03-30T00:03:55.214Z,44.00
2023-03-30T00:05:03.402Z,43.80
2023-03-30T00:06:07.328Z,44.00
2023-03-30T00:07:11.088Z,44.00
2023-03-30T00:08:18.717Z,44.10
2023-03-30T00:09:22.713Z,44.00
2023-03-30T00:10:25.167Z,44.00
2023-03-30T00:11:27.546Z,44.00
2023-03-30T00:12:30.954Z,44.10
2023-03-30T00:13:34.516Z,44.10
2023-03-30T00:14:37.548Z,44.10
2023-03-30T00:15:41.040Z,44.10
2023-03-30T00:16:43.398Z,44.20
2023-03-30T00:17:46.271Z,44.30
2023-03-30T00:18:48.800Z,44.50
2023-03-30T00:19:51.234Z,44.50
2023-03-30T00:20:53.631Z,44.50
2023-03-30T00:21:56.357Z,44.50
2023-03-30T00:22:59.373Z,44.60
2023-03-30T00:24:01.692Z,44.60
2023-03-30T00:25:04.877Z,44.70
2023-03-30T00:26:08.081Z,44.80
2023-03-30T00:27:10.484Z,44.90
2023-03-30T00:28:12.830Z,45.10
2023-03-30T00:29:15.239Z,45.10
2023-03-30T00:30:18.581Z,45.10
2023-03-30T00:31:21.055Z,45.10
2023-03-30T00:32:24.634Z,45.10
2023-03-30T00:33:41.203Z,45.10
2023-03-30T00:34:47.663Z,45.10
2023-03-30T00:35:57.447Z,45.10
2023-03-30T00:36:59.827Z,45.20
2023-03-30T00:38:03.316Z,45.20
2023-03-30T00:39:06.684Z,45.40
2023-03-30T00:40:20.076Z,45.40
2023-03-30T00:41:27.984Z,45.40
2023-03-30T00:42:30.669Z,45.40
2023-03-30T00:43:33.686Z,45.50
2023-03-30T00:45:10.417Z,45.50
2023-03-30T00:46:12.872Z,45.50
2023-03-30T00:47:16.975Z,45.60
2023-03-30T00:48:31.652Z,45.60
2023-03-30T00:49:34.633Z,45.60
2023-03-30T00:50:48.648Z,45.30
2023-03-30T00:51:51.544Z,45.20
2023-03-30T00:52:56.638Z,45.10
2023-03-30T00:54:10.954Z,45.20
2023-03-30T00:55:13.703Z,45.30
2023-03-30T00:56:19.819Z,45.40
2023-03-30T00:57:24.044Z,45.50
2023-03-30T00:58:28.278Z,45.50
2023-03-30T00:59:30.842Z,45.40
2023-03-30T01:00:34.288Z,45.20
2023-03-30T01:01:39.496Z,45.20
2023-03-30T01:02:48.549Z,45.10
2023-03-30T01:03:52.524Z,45.20
2023-03-30T01:04:57.464Z,45.50
2023-03-30T01:06:02.887Z,45.30
2023-03-30T01:07:06.138Z,45.30
2023-03-30T01:08:09.943Z,45.20
2023-03-30T01:09:16.546Z,45.30
2023-03-30T01:10:19.658Z,45.20
2023-03-30T01:11:22.472Z,45.20
2023-03-30T01:12:25.040Z,45.30
2023-03-30T01:13:33.200Z,45.40
2023-03-30T01:14:36.477Z,45.50
2023-03-30T01:15:57.141Z,45.50
2023-03-30T01:17:19.345Z,45.40
2023-03-30T01:18:33.134Z,45.40
2023-03-30T01:19:53.373Z,45.50
2023-03-30T01:21:01.767Z,45.50
2023-03-30T01:22:30.100Z,45.50
2023-03-30T01:23:53.069Z,45.50
2023-03-30T01:25:28.593Z,45.60
2023-03-30T01:27:03.001Z,45.70
2023-03-30T01:28:36.334Z,45.60
2023-03-30T01:30:01.085Z,45.50
2023-03-30T01:31:48.387Z,45.60
2023-03-30T01:33:08.722Z,45.60
2023-03-30T01:34:48.030Z,45.60
2023-03-30T01:36:08.493Z,45.50
2023-03-30T01:37:18.038Z,45.20
2023-03-30T01:38:37.249Z,45.30
2023-03-30T01:40:02.184Z,45.10
2023-03-30T01:41:19.972Z,45.10
2023-03-30T01:42:32.014Z,45.30
2023-03-30T01:44:01.753Z,45.30
2023-03-30T01:45:33.658Z,45.40
2023-03-30T01:46:46.035Z,45.60
2023-03-30T01:48:13.600Z,45.90
2023-03-30T01:49:50.352Z,46.20
2023-03-30T01:50:56.366Z,46.40
2023-03-30T01:52:06.711Z,46.60
2023-03-30T01:53:32.852Z,46.70
2023-03-30T01:54:43.809Z,46.80
2023-03-30T01:55:52.934Z,46.90
2023-03-30T01:57:04.948Z,46.90
2023-03-30T01:58:16.878Z,46.90
2023-03-30T01:59:30.264Z,47.00
2023-03-30T02:00:36.248Z,47.30
2023-03-30T02:01:41.570Z,47.50
2023-03-30T02:02:54.365Z,47.50
2023-03-30T02:03:59.492Z,47.40
2023-03-30T02:05:05.341Z,47.30
2023-03-30T02:06:18.316Z,47.50
2023-03-30T02:07:28.272Z,47.70
2023-03-30T02:08:32.879Z,47.50
2023-03-30T02:09:38.081Z,47.60
2023-03-30T02:10:42.733Z,47.60
2023-03-30T02:11:51.030Z,47.80
2023-03-30T02:12:57.504Z,47.80
2023-03-30T02:14:01.609Z,47.90
2023-03-30T02:15:09.027Z,47.90
2023-03-30T02:16:22.780Z,47.90
2023-03-30T02:17:29.540Z,48.10
2023-03-30T02:18:33.190Z,48.10
2023-03-30T02:19:37.746Z,48.00
2023-03-30T02:20:40.264Z,48.00
2023-03-30T02:21:45.040Z,47.90
2023-03-30T02:22:49.330Z,48.00
2023-03-30T02:23:54.663Z,47.30
2023-03-30T02:24:58.411Z,47.10
2023-03-30T02:26:01.294Z,47.00
2023-03-30T02:27:04.326Z,47.00
2023-03-30T02:28:08.384Z,46.90
2023-03-30T02:29:11.675Z,46.90
2023-03-30T02:30:14.776Z,47.20
2023-03-30T02:31:17.352Z,47.30
2023-03-30T02:32:24.042Z,47.60
2023-03-30T02:33:42.538Z,47.60
2023-03-30T02:35:03.689Z,47.70
2023-03-30T02:36:44.028Z,48.00
2023-03-30T02:37:52.021Z,48.10
2023-03-30T02:39:10.494Z,48.20
2023-03-30T02:40:30.755Z,48.30
2023-03-30T02:41:55.955Z,48.40
2023-03-30T02:43:24.447Z,48.40
2023-03-30T02:44:58.682Z,48.60
2023-03-30T02:46:21.842Z,48.50
2023-03-30T02:47:38.990Z,48.50
2023-03-30T02:48:54.903Z,48.50
2023-03-30T02:50:02.798Z,49.10
2023-03-30T02:51:21.200Z,49.10
2023-03-30T02:52:57.191Z,49.10
2023-03-30T02:54:25.468Z,49.40
2023-03-30T02:56:00.702Z,49.50
2023-03-30T02:57:35.996Z,49.50
2023-03-30T02:59:35.960Z,49.80
2023-03-30T03:00:56.263Z,50.00
2023-03-30T03:02:20.211Z,49.70
2023-03-30T03:03:36.677Z,49.00
2023-03-30T03:04:43.377Z,48.30
2023-03-30T03:06:02.692Z,47.30
2023-03-30T03:07:08.169Z,46.90
2023-03-30T03:08:14.758Z,46.70
2023-03-30T03:09:21.620Z,46.50
2023-03-30T03:10:23.903Z,46.50
2023-03-30T03:11:27.048Z,46.20
2023-03-30T03:12:29.480Z,46.10
2023-03-30T03:13:32.042Z,45.80
2023-03-30T03:14:35.182Z,46.00
2023-03-30T03:15:38.010Z,45.90
2023-03-30T03:16:46.418Z,45.80
2023-03-30T03:17:51.455Z,45.70
2023-03-30T03:18:53.904Z,45.60
2023-03-30T03:19:56.470Z,45.20
2023-03-30T03:20:59.336Z,45.20
2023-03-30T03:22:01.812Z,45.40
2023-03-30T03:23:07.456Z,45.20
2023-03-30T03:24:22.021Z,45.30
2023-03-30T03:25:42.829Z,45.30
2023-03-30T03:26:46.509Z,45.20
2023-03-30T03:27:49.680Z,45.20
2023-03-30T03:28:56.737Z,45.00
2023-03-30T03:29:59.414Z,45.10
2023-03-30T03:31:02.649Z,45.00
2023-03-30T03:32:05.495Z,45.10
2023-03-30T03:33:15.081Z,44.90
2023-03-30T03:34:22.565Z,47.10
2023-03-30T03:35:33.044Z,48.00
2023-03-30T03:36:39.394Z,47.10
2023-03-30T03:37:41.725Z,46.90
2023-03-30T03:38:44.421Z,46.00
2023-03-30T03:39:46.911Z,45.80
2023-03-30T03:40:52.412Z,45.50
2023-03-30T03:41:54.948Z,45.60
2023-03-30T03:42:57.313Z,45.50
2023-03-30T03:43:59.804Z,45.30
2023-03-30T03:45:02.507Z,45.80
2023-03-30T03:46:05.654Z,45.30
2023-03-30T03:47:08.272Z,45.10
2023-03-30T03:48:11.033Z,45.00
2023-03-30T03:49:22.662Z,45.00
2023-03-30T03:50:25.284Z,45.00
2023-03-30T03:51:29.338Z,45.20
2023-03-30T03:52:31.746Z,44.90
2023-03-30T03:53:34.140Z,45.00
2023-03-30T03:54:40.377Z,44.90
2023-03-30T03:55:43.492Z,44.80
2023-03-30T03:56:45.886Z,44.90
2023-03-30T03:57:48.570Z,44.80
2023-03-30T03:58:53.609Z,44.80
2023-03-30T04:00:35.112Z,45.00
2023-03-30T04:01:37.821Z,44.80
2023-03-30T04:02:40.874Z,45.10
2023-03-30T04:03:43.310Z,45.20
2023-03-30T04:04:45.952Z,48.30
2023-03-30T04:05:48.413Z,49.20
2023-03-30T04:06:51.278Z,49.90
2023-03-30T04:08:19.253Z,49.50
2023-03-30T04:09:23.111Z,48.00
2023-03-30T04:10:43.986Z,47.40
2023-03-30T04:11:52.510Z,47.00
2023-03-30T04:13:13.834Z,46.80
2023-03-30T04:14:22.140Z,46.10
2023-03-30T04:15:47.764Z,46.00
2023-03-30T04:17:02.659Z,45.80
2023-03-30T04:18:16.359Z,45.60
2023-03-30T04:19:41.936Z,45.30
2023-03-30T04:21:17.592Z,45.20
2023-03-30T04:22:36.433Z,45.20
2023-03-30T04:24:02.018Z,45.10
2023-03-30T04:25:34.251Z,45.00
2023-03-30T04:26:57.861Z,45.10
2023-03-30T04:28:25.242Z,45.30
2023-03-30T04:29:57.982Z,45.20
2023-03-30T04:31:13.785Z,45.10
2023-03-30T04:32:38.903Z,45.10
2023-03-30T04:47:26.413Z,45.20
2023-03-30T04:48:40.599Z,45.50
2023-03-30T04:50:07.750Z,45.40
2023-03-30T04:51:45.485Z,45.40
2023-03-30T04:53:08.141Z,45.30
2023-03-30T04:54:33.319Z,45.40
2023-03-30T04:55:55.073Z,45.40
2023-03-30T04:57:16.097Z,45.50
2023-03-30T04:58:40.120Z,45.50
2023-03-30T04:59:59.764Z,45.40
2023-03-30T05:01:33.817Z,45.40
2023-03-30T05:02:55.223Z,45.40
2023-03-30T05:04:19.794Z,45.40
2023-03-30T05:05:42.402Z,45.50
2023-03-30T05:08:07.386Z,45.40
2023-03-30T05:09:25.328Z,45.40
2023-03-30T05:11:01.231Z,48.40
2023-03-30T05:12:22.212Z,49.60
2023-03-30T05:13:35.426Z,49.50
2023-03-30T05:14:58.115Z,49.10
2023-03-30T05:16:33.115Z,48.60
2023-03-30T05:17:41.942Z,47.40
2023-03-30T05:19:04.628Z,46.50
2023-03-30T05:20:20.109Z,47.00
2023-03-30T05:22:09.929Z,46.40
2023-03-30T05:23:26.837Z,46.50
2023-03-30T05:24:54.530Z,46.10
2023-03-30T05:26:16.086Z,45.90
2023-03-30T05:27:27.091Z,45.90
2023-03-30T05:28:56.329Z,45.90
2023-03-30T05:30:37.941Z,46.00
2023-03-30T05:32:00.797Z,46.00
2023-03-30T05:33:22.287Z,45.80
2023-03-30T05:34:33.513Z,45.90
2023-03-30T05:35:57.100Z,45.50
2023-03-30T05:37:34.557Z,45.80
2023-03-30T05:38:56.410Z,45.90
2023-03-30T05:40:20.145Z,45.80
2023-03-30T05:41:46.114Z,45.30
2023-03-30T05:43:00.496Z,45.20
2023-03-30T05:44:22.462Z,45.20
2023-03-30T05:45:45.358Z,45.10
2023-03-30T05:47:06.468Z,45.00
2023-03-30T05:48:19.882Z,45.20
2023-03-30T05:49:40.733Z,45.40
2023-03-30T05:51:09.694Z,45.20
2023-03-30T05:52:30.769Z,45.30
2023-03-30T05:53:59.391Z,45.10
2023-03-30T05:55:20.970Z,45.30
2023-03-30T05:56:42.359Z,45.00
2023-03-30T05:57:56.732Z,45.00
2023-03-30T05:59:10.101Z,45.80
2023-03-30T06:00:29.314Z,45.10
2023-03-30T06:01:40.685Z,45.10
2023-03-30T06:02:43.332Z,45.00
2023-03-30T06:03:49.999Z,45.10
2023-03-30T06:04:52.618Z,45.20
2023-03-30T06:05:55.053Z,45.20
2023-03-30T06:06:57.339Z,45.20
2023-03-30T06:08:00.952Z,45.10
2023-03-30T06:09:04.463Z,45.20
2023-03-30T06:10:10.445Z,45.10
2023-03-30T06:11:14.127Z,45.20
2023-03-30T06:12:23.576Z,45.20
2023-03-30T06:13:26.382Z,45.30
2023-03-30T06:14:28.775Z,45.40
2023-03-30T06:15:49.783Z,45.30
2023-03-30T06:16:57.146Z,45.30
2023-03-30T06:18:03.785Z,45.40
2023-03-30T06:19:08.716Z,45.50
2023-03-30T06:20:12.494Z,45.50
2023-03-30T06:21:17.865Z,45.50
2023-03-30T06:22:41.962Z,45.60
2023-03-30T06:23:52.381Z,45.70
2023-03-30T06:24:57.355Z,45.60
2023-03-30T06:26:01.132Z,45.60
2023-03-30T06:27:08.229Z,45.60
2023-03-30T06:28:11.584Z,45.70
2023-03-30T06:29:14.077Z,45.70
2023-03-30T06:30:17.225Z,45.70
2023-03-30T06:31:24.406Z,45.60
2023-03-30T06:32:37.743Z,45.70
2023-03-30T06:33:54.189Z,45.60
2023-03-30T06:34:56.813Z,45.70
2023-03-30T06:36:01.338Z,45.80
2023-03-30T06:37:06.494Z,45.70
2023-03-30T06:38:09.453Z,45.70
2023-03-30T06:39:13.470Z,45.70
2023-03-30T06:40:16.028Z,45.70
2023-03-30T06:41:22.683Z,45.70
2023-03-30T06:42:28.812Z,45.50
2023-03-30T06:43:48.364Z,45.50
2023-03-30T06:44:53.638Z,45.80
2023-03-30T06:45:57.400Z,45.90
2023-03-30T06:47:03.799Z,45.90
2023-03-30T06:48:07.032Z,45.90
2023-03-30T06:49:13.255Z,46.00
2023-03-30T06:50:19.226Z,46.00
2023-03-30T06:51:38.929Z,45.90
2023-03-30T06:52:42.892Z,45.90
2023-03-30T06:53:45.447Z,45.90
2023-03-30T06:54:47.978Z,45.80
2023-03-30T06:55:55.772Z,45.80
2023-03-30T06:56:58.758Z,45.80
2023-03-30T06:58:01.525Z,45.50
2023-03-30T06:59:05.318Z,45.50
2023-03-30T07:00:14.660Z,45.90
2023-03-30T07:01:35.809Z,45.70
2023-03-30T07:02:54.674Z,45.70
2023-03-30T07:04:02.755Z,45.80
2023-03-30T07:05:40.456Z,45.80
2023-03-30T07:06:48.265Z,45.70
2023-03-30T07:07:54.663Z,45.70
2023-03-30T07:08:57.630Z,45.70
2023-03-30T07:10:02.551Z,45.80
2023-03-30T07:11:07.259Z,45.80
2023-03-30T07:12:12.673Z,45.80
2023-03-30T07:13:16.893Z,45.70
2023-03-30T07:14:21.533Z,45.80
2023-03-30T07:15:24.419Z,45.80
2023-03-30T07:16:27.231Z,45.80
2023-03-30T07:17:30.358Z,45.80
2023-03-30T07:18:32.805Z,45.70
2023-03-30T07:19:36.569Z,45.80
2023-03-30T07:20:39.378Z,45.80
2023-03-30T07:21:49.599Z,45.80
2023-03-30T07:22:54.046Z,45.80
2023-03-30T07:23:56.777Z,45.80
2023-03-30T07:25:05.739Z,45.80
2023-03-30T07:26:08.352Z,45.80
2023-03-30T07:27:17.630Z,45.90
2023-03-30T07:28:22.327Z,45.80
2023-03-30T07:29:24.859Z,45.80
2023-03-30T07:30:29.994Z,45.80
2023-03-30T07:31:38.323Z,45.80
2023-03-30T07:32:43.760Z,45.90
2023-03-30T07:33:46.807Z,45.80
2023-03-30T07:34:53.500Z,45.80
2023-03-30T07:35:57.011Z,45.80
2023-03-30T07:37:01.607Z,45.90
2023-03-30T07:38:07.370Z,45.80
2023-03-30T07:39:13.593Z,45.80
2023-03-30T07:40:19.852Z,45.80
2023-03-30T07:41:22.624Z,45.80
2023-03-30T07:42:29.009Z,45.80
2023-03-30T07:43:31.567Z,45.80
2023-03-30T07:44:34.267Z,45.80
2023-03-30T07:45:40.758Z,45.80
2023-03-30T07:46:45.736Z,45.90
2023-03-30T07:47:54.407Z,45.90
2023-03-30T07:48:57.473Z,45.80
2023-03-30T07:50:00.342Z,45.80
2023-03-30T07:51:09.073Z,45.80
2023-03-30T07:52:19.137Z,45.80
2023-03-30T07:53:27.960Z,45.80
2023-03-30T07:54:31.095Z,45.80
2023-03-30T07:55:54.748Z,45.80
2023-03-30T07:57:06.303Z,45.80
2023-03-30T07:58:08.834Z,45.80
2023-03-30T07:59:13.573Z,45.80
2023-03-30T08:00:18.914Z,45.80
2023-03-30T08:01:41.922Z,45.80
2023-03-30T08:02:51.564Z,45.80
2023-03-30T08:03:55.514Z,45.80
2023-03-30T08:05:00.133Z,45.80
2023-03-30T08:06:11.160Z,45.80
2023-03-30T08:07:16.687Z,45.80
2023-03-30T08:08:20.243Z,45.80
2023-03-30T08:09:22.714Z,45.80
2023-03-30T08:10:25.380Z,45.90
2023-03-30T08:11:28.100Z,45.90
2023-03-30T08:12:30.509Z,45.80
2023-03-30T08:13:33.359Z,45.80
2023-03-30T08:14:35.701Z,45.70
2023-03-30T08:15:38.150Z,45.70
2023-03-30T08:16:40.746Z,45.70
2023-03-30T08:17:43.451Z,45.70
2023-03-30T08:18:47.603Z,45.70
2023-03-30T08:19:50.088Z,45.70
2023-03-30T08:20:53.705Z,45.70
2023-03-30T08:22:01.719Z,45.80
2023-03-30T08:23:05.352Z,45.80
2023-03-30T08:24:08.670Z,45.80
2023-03-30T08:25:12.078Z,45.90
2023-03-30T08:26:14.387Z,45.90
2023-03-30T08:27:16.776Z,45.90
2023-03-30T08:28:21.479Z,45.80
2023-03-30T08:29:24.052Z,45.70
2023-03-30T08:30:27.236Z,45.90
2023-03-30T08:31:32.684Z,45.80
2023-03-30T08:32:35.390Z,45.80
2023-03-30T08:33:38.212Z,45.80
2023-03-30T08:34:40.646Z,45.60
2023-03-30T08:35:49.433Z,45.50
2023-03-30T08:36:51.838Z,45.60
2023-03-30T08:37:55.728Z,45.50
2023-03-30T08:38:58.201Z,45.20
2023-03-30T08:40:00.665Z,45.80
2023-03-30T08:41:39.269Z,45.90
2023-03-30T08:42:56.745Z,46.00
2023-03-30T08:44:01.808Z,45.70
2023-03-30T08:45:05.776Z,45.90
2023-03-30T08:46:16.029Z,45.60
2023-03-30T08:47:26.030Z,45.50
2023-03-30T08:48:33.507Z,45.60
2023-03-30T08:49:46.615Z,45.60
2023-03-30T08:50:59.346Z,45.60
2023-03-30T08:52:04.318Z,45.70
2023-03-30T08:53:08.071Z,45.70
2023-03-30T08:54:18.821Z,47.20
2023-03-30T08:55:30.227Z,47.90
2023-03-30T08:56:51.182Z,48.30
2023-03-30T08:58:03.442Z,48.60
2023-03-30T08:59:22.830Z,48.70
2023-03-30T09:01:02.169Z,49.20
2023-03-30T09:02:16.503Z,49.40
2023-03-30T09:03:38.937Z,49.60
2023-03-30T09:05:08.550Z,49.80
2023-03-30T09:06:30.364Z,50.00
2023-03-30T09:07:46.619Z,49.80
2023-03-30T09:08:49.969Z,50.10
2023-03-30T09:09:55.369Z,49.80
2023-03-30T09:11:03.198Z,49.80
2023-03-30T09:12:16.799Z,49.90
2023-03-30T09:13:22.187Z,50.00
2023-03-30T09:14:33.726Z,49.90
2023-03-30T09:15:51.637Z,50.20
2023-03-30T09:17:15.266Z,50.10
2023-03-30T09:18:35.236Z,50.10
2023-03-30T09:19:49.139Z,50.00
2023-03-30T09:20:54.162Z,49.90
2023-03-30T09:22:00.560Z,50.00
2023-03-30T09:23:04.759Z,49.80
2023-03-30T09:24:15.920Z,49.50
2023-03-30T09:25:47.855Z,49.30
2023-03-30T09:27:05.710Z,49.30
2023-03-30T09:28:32.758Z,49.00
2023-03-30T09:29:46.570Z,49.00
2023-03-30T09:30:54.566Z,48.80
2023-03-30T09:32:19.535Z,48.90
2023-03-30T09:33:32.348Z,48.90
2023-03-30T09:34:45.761Z,48.70
2023-03-30T09:36:16.027Z,48.70
2023-03-30T09:37:21.707Z,48.70
2023-03-30T09:38:24.166Z,48.60
2023-03-30T09:39:30.348Z,48.60
2023-03-30T09:41:07.275Z,48.60
2023-03-30T09:42:36.383Z,48.60
2023-03-30T09:43:52.995Z,48.50
2023-03-30T09:45:33.169Z,48.50
2023-03-30T09:46:36.998Z,48.50
2023-03-30T09:47:40.149Z,48.40
2023-03-30T09:48:48.022Z,48.30
2023-03-30T09:49:58.734Z,48.50
2023-03-30T09:51:01.989Z,48.40
2023-03-30T09:52:07.331Z,48.40
2023-03-30T09:53:29.986Z,48.30
2023-03-30T09:54:36.825Z,48.40
2023-03-30T09:55:39.259Z,48.50
2023-03-30T09:56:48.512Z,48.40
2023-03-30T09:57:52.237Z,48.40
2023-03-30T09:58:56.235Z,48.40
2023-03-30T10:00:00.791Z,48.50
2023-03-30T10:01:19.915Z,48.60
2023-03-30T10:02:26.521Z,48.40
2023-03-30T10:03:29.736Z,48.50
2023-03-30T10:04:32.420Z,48.50
2023-03-30T10:05:36.837Z,48.50
2023-03-30T10:06:49.365Z,48.50
2023-03-30T10:07:55.376Z,48.50
2023-03-30T10:08:58.340Z,48.50
2023-03-30T10:10:20.627Z,48.60
2023-03-30T10:12:00.299Z,48.50
2023-03-30T10:13:11.968Z,48.40
2023-03-30T10:14:31.560Z,48.50
2023-03-30T10:15:38.436Z,48.50
2023-03-30T10:16:45.378Z,48.50
2023-03-30T10:17:56.150Z,48.50
2023-03-30T10:19:05.479Z,48.60
2023-03-30T10:20:17.636Z,48.40
2023-03-30T10:21:27.435Z,48.40
2023-03-30T10:22:32.612Z,48.30
2023-03-30T10:23:42.707Z,48.10
2023-03-30T10:24:53.102Z,48.00
2023-03-30T10:26:04.320Z,48.00
2023-03-30T10:27:14.644Z,48.00
2023-03-30T10:28:33.489Z,47.90
2023-03-30T10:29:36.258Z,47.50
2023-03-30T10:30:39.497Z,47.00
2023-03-30T10:31:47.835Z,46.70
2023-03-30T10:32:53.192Z,46.70
2023-03-30T10:34:00.574Z,46.60
2023-03-30T10:35:10.868Z,46.60
2023-03-30T10:36:15.712Z,46.60
2023-03-30T10:37:32.686Z,46.30
2023-03-30T10:38:36.283Z,46.10
2023-03-30T10:39:41.970Z,46.50
2023-03-30T10:40:46.338Z,46.60
2023-03-30T10:41:50.392Z,46.70
2023-03-30T10:42:57.669Z,47.10
2023-03-30T10:44:17.983Z,46.40
2023-03-30T10:45:36.741Z,46.40
2023-03-30T10:46:39.225Z,46.60
2023-03-30T10:48:00.171Z,47.00
2023-03-30T10:49:33.129Z,46.80
2023-03-30T10:50:48.550Z,47.00
2023-03-30T10:52:10.782Z,47.40
2023-03-30T10:53:36.227Z,47.20
2023-03-30T10:54:52.614Z,48.10
2023-03-30T10:56:13.787Z,47.80
2023-03-30T10:57:19.403Z,47.60
2023-03-30T10:59:01.214Z,47.80
2023-03-30T11:00:25.560Z,47.90
2023-03-30T11:01:48.193Z,47.80
2023-03-30T11:03:08.461Z,47.50
2023-03-30T11:04:28.324Z,47.40
2023-03-30T11:05:37.452Z,47.10
2023-03-30T11:06:44.677Z,47.10
2023-03-30T11:07:59.097Z,47.20
2023-03-30T11:09:05.960Z,47.20
2023-03-30T11:10:30.487Z,47.20
2023-03-30T11:11:39.502Z,47.20
2023-03-30T11:12:46.478Z,47.20
2023-03-30T11:13:54.593Z,47.00
2023-03-30T11:15:04.564Z,47.00
2023-03-30T11:16:33.142Z,47.00
2023-03-30T11:17:59.284Z,47.10
2023-03-30T11:19:20.336Z,47.10
2023-03-30T11:20:34.576Z,47.00
2023-03-30T11:21:57.419Z,46.90
2023-03-30T11:23:07.585Z,47.00
2023-03-30T11:24:21.346Z,47.10
2023-03-30T11:25:27.105Z,47.20
2023-03-30T11:26:49.519Z,47.20
2023-03-30T11:28:04.062Z,47.20
2023-03-30T11:29:57.009Z,47.20
2023-03-30T11:31:08.970Z,47.40
2023-03-30T11:32:11.969Z,47.30
2023-03-30T11:33:42.122Z,47.20
2023-03-30T11:35:04.332Z,47.20
2023-03-30T11:36:18.858Z,47.30
2023-03-30T11:37:30.427Z,47.10
2023-03-30T11:38:48.837Z,47.20
2023-03-30T11:40:13.585Z,47.30
2023-03-30T11:41:26.420Z,47.30
2023-03-30T11:42:32.356Z,46.70
2023-03-30T11:43:34.752Z,46.80
2023-03-30T11:44:37.163Z,46.60
2023-03-30T11:46:10.085Z,46.30
2023-03-30T11:47:35.659Z,46.30
2023-03-30T11:48:48.141Z,46.20
2023-03-30T11:50:12.026Z,46.30
2023-03-30T11:51:33.199Z,46.10
2023-03-30T11:52:50.295Z,45.90
2023-03-30T11:54:23.322Z,45.80
2023-03-30T11:56:02.059Z,45.60
2023-03-30T11:57:32.490Z,45.50
2023-03-30T11:58:45.443Z,45.50
2023-03-30T12:00:22.682Z,45.30
2023-03-30T12:02:04.128Z,45.40
2023-03-30T12:03:38.866Z,45.30
2023-03-30T12:05:01.032Z,45.30
2023-03-30T12:06:25.816Z,45.40
2023-03-30T12:07:28.990Z,45.20
2023-03-30T12:09:09.485Z,45.30
2023-03-30T12:10:22.783Z,45.40
2023-03-30T12:11:41.946Z,45.30
2023-03-30T12:12:45.956Z,45.20
2023-03-30T12:13:52.108Z,45.10
2023-03-30T12:15:01.535Z,45.20
2023-03-30T12:16:12.057Z,45.10
2023-03-30T12:17:33.352Z,44.90
2023-03-30T12:19:16.201Z,45.10
2023-03-30T12:20:47.259Z,44.90
2023-03-30T12:22:06.305Z,45.00
2023-03-30T12:23:34.317Z,45.00
2023-03-30T12:25:02.677Z,45.10
2023-03-30T12:26:24.740Z,45.10
2023-03-30T12:27:29.088Z,44.90
2023-03-30T12:29:06.493Z,44.90
2023-03-30T12:30:24.431Z,44.80
2023-03-30T12:32:03.221Z,44.90
2023-03-30T12:33:18.349Z,44.90
2023-03-30T12:34:22.478Z,44.90
2023-03-30T12:35:49.739Z,44.80
2023-03-30T12:36:56.625Z,45.00
2023-03-30T12:38:00.302Z,45.20
2023-03-30T12:39:05.512Z,45.40
2023-03-30T12:40:22.204Z,45.40
2023-03-30T12:41:27.391Z,45.60
2023-03-30T12:42:39.463Z,45.80
2023-03-30T12:44:02.248Z,46.00
2023-03-30T12:45:11.106Z,46.30
2023-03-30T12:46:26.046Z,46.20
2023-03-30T12:47:50.957Z,46.70
2023-03-30T12:49:46.136Z,47.00
2023-03-30T12:51:03.284Z,46.70
2023-03-30T12:52:18.019Z,46.40
2023-03-30T12:53:36.211Z,46.60
2023-03-30T12:55:16.094Z,46.90
2023-03-30T12:56:43.846Z,47.10
2023-03-30T12:57:59.738Z,47.00
2023-03-30T12:59:33.755Z,47.70
2023-03-30T13:00:51.051Z,47.20
2023-03-30T13:02:26.259Z,47.10
2023-03-30T13:03:42.227Z,47.10
2023-03-30T13:04:48.920Z,46.90
2023-03-30T13:05:54.656Z,46.80
2023-03-30T13:07:07.568Z,46.70
2023-03-30T13:08:18.856Z,46.40
2023-03-30T13:09:25.429Z,46.00
2023-03-30T13:10:30.571Z,46.10
2023-03-30T13:12:03.082Z,46.10
2023-03-30T13:13:06.054Z,46.10
2023-03-30T13:14:34.875Z,46.10
2023-03-30T13:15:58.632Z,45.80
2023-03-30T13:17:01.224Z,45.50
2023-03-30T13:18:23.712Z,45.50
2023-03-30T13:19:32.710Z,45.20
2023-03-30T13:20:47.379Z,45.30
2023-03-30T13:21:58.862Z,45.60
2023-03-30T13:23:12.328Z,45.60
2023-03-30T13:24:36.453Z,45.50
2023-03-30T13:25:55.953Z,45.80
2023-03-30T13:27:16.829Z,46.10
2023-03-30T13:28:55.196Z,45.90
2023-03-30T13:30:08.630Z,46.00
2023-03-30T13:31:41.850Z,46.20
2023-03-30T13:33:12.116Z,46.30
2023-03-30T13:34:55.136Z,46.30
2023-03-30T13:36:17.817Z,46.40
2023-03-30T13:37:34.799Z,46.50
2023-03-30T13:38:47.106Z,46.50
2023-03-30T13:40:41.617Z,46.40
2023-03-30T13:42:12.880Z,46.20
2023-03-30T13:43:27.780Z,46.30
2023-03-30T13:44:46.631Z,46.20
2023-03-30T13:46:17.141Z,46.00
2023-03-30T13:47:45.069Z,45.70
2023-03-30T13:48:53.184Z,45.70
2023-03-30T13:50:03.486Z,45.80
2023-03-30T13:51:06.193Z,45.60
2023-03-30T13:52:16.102Z,45.60
2023-03-30T13:53:19.430Z,45.80
2023-03-30T13:54:27.175Z,45.90
2023-03-30T13:55:34.505Z,45.90
2023-03-30T13:56:41.343Z,46.00
2023-03-30T13:57:44.672Z,46.10
2023-03-30T13:58:57.405Z,45.90
2023-03-30T14:00:06.785Z,46.00
2023-03-30T14:01:15.976Z,46.00
2023-03-30T14:02:22.501Z,46.00
2023-03-30T14:03:36.070Z,45.90
2023-03-30T14:04:39.073Z,45.90
2023-03-30T14:05:42.190Z,45.90
2023-03-30T14:06:49.171Z,45.90
2023-03-30T14:07:56.555Z,45.90
2023-03-30T14:09:05.566Z,46.00
2023-03-30T14:10:18.284Z,45.90
2023-03-30T14:11:26.327Z,45.80
2023-03-30T14:12:28.689Z,45.60
2023-03-30T14:13:31.129Z,45.80
2023-03-30T14:14:35.541Z,45.90
2023-03-30T14:15:38.659Z,45.80
2023-03-30T14:16:42.676Z,45.70
2023-03-30T14:17:55.028Z,45.80
2023-03-30T14:19:17.580Z,45.70
2023-03-30T14:20:50.383Z,45.80
2023-03-30T14:22:21.767Z,45.70
2023-03-30T14:23:36.305Z,46.00
2023-03-30T14:24:38.663Z,46.10
2023-03-30T14:25:43.355Z,46.10
2023-03-30T14:26:50.222Z,46.20
2023-03-30T14:27:53.075Z,46.20
2023-03-30T14:29:05.275Z,46.30
2023-03-30T14:30:22.326Z,46.20
2023-03-30T14:31:27.339Z,46.10
2023-03-30T14:32:29.764Z,46.00
2023-03-30T14:33:35.314Z,45.90
2023-03-30T14:34:37.698Z,45.60
2023-03-30T14:35:44.177Z,45.70
2023-03-30T14:36:46.530Z,45.60
2023-03-30T14:37:52.439Z,45.50
2023-03-30T14:38:57.538Z,45.40
2023-03-30T14:40:00.322Z,45.10
2023-03-30T14:41:27.157Z,45.00
2023-03-30T14:42:33.944Z,45.00
2023-03-30T14:43:40.847Z,44.90
2023-03-30T14:44:45.577Z,45.00
2023-03-30T14:45:49.253Z,45.00
2023-03-30T14:46:55.446Z,45.20
2023-03-30T14:47:58.587Z,44.90
2023-03-30T14:49:01.451Z,45.30
2023-03-30T14:50:08.327Z,45.30
2023-03-30T14:51:23.971Z,45.40
2023-03-30T14:52:39.303Z,45.20
2023-03-30T14:53:42.247Z,45.00
2023-03-30T14:54:54.479Z,44.90
2023-03-30T14:56:08.977Z,44.90
2023-03-30T14:57:12.289Z,44.80
2023-03-30T14:58:16.429Z,44.70
2023-03-30T14:59:19.689Z,44.80
2023-03-30T15:00:24.857Z,44.60
2023-03-30T15:01:33.051Z,44.60
2023-03-30T15:02:37.497Z,44.90
2023-03-30T15:03:41.797Z,45.50
2023-03-30T15:04:44.350Z,45.80
2023-03-30T15:05:46.729Z,46.00
2023-03-30T15:07:16.313Z,45.90
2023-03-30T15:08:30.011Z,45.70
2023-03-30T15:09:38.521Z,46.10
2023-03-30T15:10:49.454Z,45.90
2023-03-30T15:11:58.841Z,46.10
2023-03-30T15:13:02.723Z,45.90
2023-03-30T15:14:13.353Z,46.10
2023-03-30T15:15:17.376Z,46.00
2023-03-30T15:16:23.671Z,45.30
2023-03-30T15:17:28.119Z,45.80
2023-03-30T15:18:32.978Z,45.90
2023-03-30T15:19:37.713Z,46.20
2023-03-30T15:20:40.033Z,46.30
2023-03-30T15:21:43.213Z,46.10
2023-03-30T15:22:48.620Z,46.00
2023-03-30T15:23:51.191Z,46.20
2023-03-30T15:24:55.806Z,46.00
2023-03-30T15:26:01.468Z,46.00
2023-03-30T15:27:07.706Z,45.90
2023-03-30T15:28:15.538Z,46.10
2023-03-30T15:29:19.669Z,46.10
2023-03-30T15:30:30.765Z,46.00
2023-03-30T15:31:33.286Z,46.00
2023-03-30T15:32:39.229Z,46.00
2023-03-30T15:33:49.012Z,45.70
2023-03-30T15:35:14.905Z,45.20
2023-03-30T15:36:23.747Z,44.20
2023-03-30T15:37:26.078Z,44.30
2023-03-30T15:38:31.450Z,43.10
2023-03-30T15:39:34.030Z,43.20
2023-03-30T15:40:37.747Z,44.90
2023-03-30T15:41:44.765Z,43.70
2023-03-30T15:42:47.572Z,44.00
2023-03-30T15:43:53.806Z,43.80